Time;durP1;ratioP1;P1;durP2;ratioP2;P2;SDS_P1;SDS_P2;PMS_P1;PMS_P2;Temp;Humidity;BMP_temperature;BMP_pressure;BME280_temperature;BME280_humidity;BME280_pressure;Samples;Min_cycle;Max_cycle;Signal;HPM_P1;HPM_P2
2023/05/03 00:00:02;;;;;;;6.63;2.23;;;;;;;;;;5241597;28;20122;-75
2023/05/03 00:02:38;;;;;;;5.63;2.67;;;;;;;;;;5152128;28;20035;-75
2023/05/03 00:05:13;;;;;;;5.80;2.37;;;;;;;;;;5184878;28;20046;-75
2023/05/03 00:07:45;;;;;;;9.67;2.70;;;;;;;;;;5152888;28;20022;-74
2023/05/03 00:10:16;;;;;;;4.17;2.23;;;;;;;;;;5169049;28;20022;-74
2023/05/03 00:12:48;;;;;;;6.33;2.20;;;;;;;;;;5168882;28;20030;-74
2023/05/03 00:15:19;;;;;;;8.40;2.87;;;;;;;;;;5169084;28;20053;-74
2023/05/03 00:17:50;;;;;;;5.27;2.10;;;;;;;;;;5168947;28;20121;-74
2023/05/03 00:20:22;;;;;;;7.17;2.43;;;;;;;;;;5170906;28;20077;-75
2023/05/03 00:22:53;;;;;;;6.77;3.20;;;;;;;;;;5168191;28;20031;-74
2023/05/03 00:25:24;;;;;;;4.63;2.40;;;;;;;;;;5168658;28;20038;-75
2023/05/03 00:27:56;;;;;;;5.33;2.47;;;;;;;;;;5169578;28;20500;-75
2023/05/03 00:30:27;;;;;;;4.97;3.00;;;;;;;;;;5168778;28;20026;-74
2023/05/03 00:32:58;;;;;;;5.33;2.37;;;;;;;;;;5168831;28;20023;-73
2023/05/03 00:35:29;;;;;;;11.77;3.30;;;;;;;;;;5168776;28;20385;-75
2023/05/03 00:38:01;;;;;;;5.97;3.25;;;;;;;;;;5169279;28;20076;-75
2023/05/03 00:40:32;;;;;;;4.63;2.70;;;;;;;;;;5170024;28;20037;-74
2023/05/03 00:43:03;;;;;;;5.17;2.57;;;;;;;;;;5189666;28;20436;-74
2023/05/03 00:45:34;;;;;;;5.70;2.77;;;;;;;;;;5186914;28;20861;-74
2023/05/03 00:48:06;;;;;;;4.10;2.40;;;;;;;;;;5167604;28;20030;-74
2023/05/03 00:50:37;;;;;;;4.87;3.07;;;;;;;;;;5169478;28;20110;-75
2023/05/03 00:53:08;;;;;;;8.53;3.17;;;;;;;;;;5169680;28;20023;-75
2023/05/03 00:55:40;;;;;;;6.03;3.10;;;;;;;;;;5168923;28;20054;-74
2023/05/03 00:58:12;;;;;;;6.30;2.80;;;;;;;;;;5169838;28;20027;-74
2023/05/03 01:00:43;;;;;;;6.53;2.57;;;;;;;;;;5171072;28;20046;-75
2023/05/03 01:03:14;;;;;;;8.20;3.20;;;;;;;;;;5166937;28;20069;-75
2023/05/03 01:06:04;;;;;;;7.40;2.50;;;;;;;;;;5168912;28;20112;-74
2023/05/03 01:08:54;;;;;;;6.63;2.70;;;;;;;;;;5182652;28;20113;-74
2023/05/03 01:11:46;;;;;;;8.07;2.80;;;;;;;;;;5167857;28;20023;-75
2023/05/03 01:14:17;;;;;;;6.10;3.30;;;;;;;;;;5272442;23;20055;-76
2023/05/03 01:16:53;;;;;;;5.73;2.50;;;;;;;;;;5271945;28;20028;-76
2023/05/03 01:19:28;;;;;;;6.00;2.30;;;;;;;;;;5308995;28;20057;-76
2023/05/03 01:22:18;;;;;;;5.13;2.13;;;;;;;;;;5313527;28;20475;-75
2023/05/03 01:24:54;;;;;;;8.17;3.17;;;;;;;;;;5314075;28;20490;-76
2023/05/03 01:27:25;;;;;;;9.93;2.73;;;;;;;;;;5313445;28;20012;-77
2023/05/03 01:29:56;;;;;;;6.83;2.83;;;;;;;;;;5305124;28;20031;-77
2023/05/03 01:32:35;;;;;;;6.70;2.90;;;;;;;;;;5291350;28;20046;-77
2023/05/03 01:35:25;;;;;;;6.53;2.50;;;;;;;;;;5291859;28;20032;-77
2023/05/03 01:37:56;;;;;;;7.90;2.60;;;;;;;;;;5292675;28;20031;-77
2023/05/03 01:40:29;;;;;;;3.73;2.30;;;;;;;;;;5291778;28;20016;-77
2023/05/03 01:43:02;;;;;;;8.03;3.10;;;;;;;;;;5287381;28;20089;-77
2023/05/03 01:45:33;;;;;;;6.00;2.73;;;;;;;;;;5298293;28;20023;-75
2023/05/03 01:48:12;;;;;;;5.03;3.23;;;;;;;;;;5289028;28;20391;-76
2023/05/03 01:50:43;;;;;;;7.37;3.33;;;;;;;;;;5291598;28;20042;-76
2023/05/03 01:53:14;;;;;;;6.23;3.07;;;;;;;;;;5290771;28;20020;-76
2023/05/03 01:55:46;;;;;;;6.13;3.30;;;;;;;;;;5291485;28;20102;-77
2023/05/03 01:58:17;;;;;;;8.13;3.20;;;;;;;;;;5291765;28;20061;-77
2023/05/03 02:00:48;;;;;;;7.37;3.10;;;;;;;;;;5291219;28;20046;-77
2023/05/03 02:03:19;;;;;;;10.53;3.50;;;;;;;;;;5291370;28;20028;-77
2023/05/03 02:05:51;;;;;;;6.60;3.00;;;;;;;;;;5291609;28;20016;-76
2023/05/03 02:08:22;;;;;;;6.53;3.40;;;;;;;;;;5290395;28;20057;-77
2023/05/03 02:10:53;;;;;;;6.83;2.90;;;;;;;;;;5291640;28;20026;-77
2023/05/03 02:13:24;;;;;;;5.77;3.20;;;;;;;;;;5291060;28;20044;-76
2023/05/03 02:15:55;;;;;;;6.57;3.37;;;;;;;;;;5272532;28;20027;-77
2023/05/03 02:18:30;;;;;;;5.23;2.67;;;;;;;;;;5291331;28;20471;-76
2023/05/03 02:21:01;;;;;;;9.80;3.33;;;;;;;;;;5291651;28;20098;-76
2023/05/03 02:23:32;;;;;;;7.67;3.33;;;;;;;;;;5291451;28;20020;-77
2023/05/03 02:26:04;;;;;;;5.43;2.67;;;;;;;;;;5291501;28;20451;-77
2023/05/03 02:28:35;;;;;;;7.40;2.83;;;;;;;;;;5291406;28;20021;-77
2023/05/03 02:31:06;;;;;;;5.63;2.73;;;;;;;;;;5290386;28;20454;-77
2023/05/03 02:33:38;;;;;;;8.63;2.90;;;;;;;;;;5272532;28;20047;-77
2023/05/03 02:36:09;;;;;;;7.47;2.40;;;;;;;;;;5291651;28;20038;-76
2023/05/03 02:38:40;;;;;;;7.03;3.37;;;;;;;;;;5290643;28;20702;-76
2023/05/03 02:41:11;;;;;;;9.80;3.17;;;;;;;;;;5290854;28;20089;-75
2023/05/03 02:43:43;;;;;;;8.10;2.57;;;;;;;;;;5290986;28;20016;-76
2023/05/03 02:46:14;;;;;;;7.67;2.67;;;;;;;;;;5290204;28;20293;-78
2023/05/03 02:48:45;;;;;;;4.00;2.40;;;;;;;;;;5273608;28;20024;-77
2023/05/03 02:51:16;;;;;;;4.70;2.53;;;;;;;;;;5290945;28;20057;-76
2023/05/03 02:53:47;;;;;;;6.73;3.07;;;;;;;;;;5291030;28;20043;-76
2023/05/03 02:56:19;;;;;;;5.93;3.00;;;;;;;;;;5291191;28;20382;-76
2023/05/03 02:58:51;;;;;;;11.30;3.37;;;;;;;;;;5272835;28;20124;-76
2023/05/03 03:01:22;;;;;;;6.23;3.30;;;;;;;;;;5289888;28;20024;-76
2023/05/03 03:03:53;;;;;;;7.90;2.80;;;;;;;;;;5291097;28;20482;-77
2023/05/03 03:06:24;;;;;;;8.27;3.00;;;;;;;;;;5272187;28;20029;-76
2023/05/03 03:08:56;;;;;;;5.77;2.40;;;;;;;;;;5290785;28;20016;-76
2023/05/03 03:11:27;;;;;;;8.23;3.33;;;;;;;;;;5271929;28;20020;-77
2023/05/03 03:13:58;;;;;;;7.43;3.00;;;;;;;;;;5290377;28;20062;-77
2023/05/03 03:16:29;;;;;;;9.63;2.97;;;;;;;;;;5289486;28;20032;-77
2023/05/03 03:19:00;;;;;;;6.80;3.13;;;;;;;;;;5291511;28;20013;-77
2023/05/03 03:21:32;;;;;;;6.87;2.73;;;;;;;;;;5293094;28;20089;-77
2023/05/03 03:24:03;;;;;;;6.70;3.10;;;;;;;;;;5293651;28;20161;-76
2023/05/03 03:26:34;;;;;;;8.10;3.80;;;;;;;;;;5293517;28;20047;-76
2023/05/03 03:29:06;;;;;;;5.57;2.83;;;;;;;;;;5294189;28;20369;-76
2023/05/03 03:31:37;;;;;;;7.93;3.03;;;;;;;;;;5293091;28;20016;-76
2023/05/03 03:34:08;;;;;;;8.50;3.30;;;;;;;;;;5294436;28;20499;-76
2023/05/03 03:36:39;;;;;;;7.70;3.27;;;;;;;;;;5292504;28;20034;-76
2023/05/03 03:39:10;;;;;;;10.20;4.13;;;;;;;;;;5293768;28;20610;-76
2023/05/03 03:41:42;;;;;;;8.27;3.13;;;;;;;;;;5293070;28;20030;-76
2023/05/03 03:44:13;;;;;;;6.47;3.13;;;;;;;;;;5294087;28;20020;-76
2023/05/03 03:46:44;;;;;;;5.43;3.67;;;;;;;;;;5293649;28;20020;-76
2023/05/03 03:49:16;;;;;;;4.73;3.17;;;;;;;;;;5293853;28;20028;-76
2023/05/03 03:51:47;;;;;;;7.77;3.07;;;;;;;;;;5293861;28;20121;-77
2023/05/03 03:54:18;;;;;;;6.47;3.57;;;;;;;;;;5294336;28;20020;-76
2023/05/03 03:56:51;;;;;;;6.53;3.10;;;;;;;;;;5293576;28;20024;-77
2023/05/03 03:59:22;;;;;;;8.43;3.60;;;;;;;;;;5292525;28;20035;-77
2023/05/03 04:01:53;;;;;;;7.83;3.30;;;;;;;;;;5292597;28;20468;-77
2023/05/03 04:04:25;;;;;;;9.83;3.90;;;;;;;;;;5292445;28;20027;-77
2023/05/03 04:06:56;;;;;;;8.10;3.67;;;;;;;;;;5293695;28;20251;-77
2023/05/03 04:09:27;;;;;;;9.23;4.30;;;;;;;;;;5292768;28;20027;-77
2023/05/03 04:12:01;;;;;;;8.27;3.63;;;;;;;;;;5292949;28;20019;-76
2023/05/03 04:14:32;;;;;;;9.13;3.95;;;;;;;;;;5293323;28;20047;-76
2023/05/03 04:17:04;;;;;;;7.63;4.20;;;;;;;;;;5292872;28;20476;-76
2023/05/03 04:19:37;;;;;;;8.30;3.37;;;;;;;;;;5275436;28;20027;-76
2023/05/03 04:22:08;;;;;;;10.13;4.03;;;;;;;;;;5293285;28;20013;-76
2023/05/03 04:24:40;;;;;;;6.30;4.10;;;;;;;;;;5293570;28;20016;-76
2023/05/03 04:27:13;;;;;;;6.47;3.43;;;;;;;;;;5293285;28;20633;-76
2023/05/03 04:29:44;;;;;;;7.67;3.90;;;;;;;;;;5292847;28;20035;-76
2023/05/03 04:32:16;;;;;;;10.57;3.77;;;;;;;;;;5291443;28;20016;-77
2023/05/03 04:34:49;;;;;;;12.77;4.40;;;;;;;;;;5292990;28;20415;-77
2023/05/03 04:37:21;;;;;;;7.77;4.17;;;;;;;;;;5293152;28;20016;-77
2023/05/03 04:39:52;;;;;;;8.00;4.50;;;;;;;;;;5293324;28;20043;-77
2023/05/03 04:42:23;;;;;;;7.73;4.20;;;;;;;;;;5292398;28;20202;-75
2023/05/03 04:44:55;;;;;;;12.83;4.27;;;;;;;;;;5293509;28;20008;-75
2023/05/03 04:47:26;;;;;;;5.57;3.93;;;;;;;;;;5291990;28;20027;-76
2023/05/03 04:49:57;;;;;;;9.10;4.30;;;;;;;;;;5293370;28;20012;-76
2023/05/03 04:52:29;;;;;;;7.63;4.40;;;;;;;;;;5274884;28;20058;-76
2023/05/03 04:55:00;;;;;;;9.93;3.77;;;;;;;;;;5292752;28;20026;-76
2023/05/03 04:57:32;;;;;;;12.63;5.20;;;;;;;;;;5292931;28;20026;-77
2023/05/03 05:00:09;;;;;;;13.37;4.37;;;;;;;;;;5293347;28;20035;-77
2023/05/03 05:02:41;;;;;;;10.40;4.30;;;;;;;;;;5291007;28;20749;-77
2023/05/03 05:05:12;;;;;;;9.60;4.30;;;;;;;;;;5291873;28;20028;-76
2023/05/03 05:07:43;;;;;;;7.27;4.03;;;;;;;;;;5292287;28;20016;-77
2023/05/03 05:10:14;;;;;;;12.40;4.67;;;;;;;;;;5288323;28;20028;-76
2023/05/03 05:12:45;;;;;;;10.03;5.20;;;;;;;;;;5292680;28;20044;-77
2023/05/03 05:15:17;;;;;;;14.73;4.47;;;;;;;;;;5291470;28;20047;-77
2023/05/03 05:17:48;;;;;;;9.13;4.53;;;;;;;;;;5292796;28;20020;-77
2023/05/03 05:20:19;;;;;;;14.10;4.70;;;;;;;;;;5292190;28;20115;-76
2023/05/03 05:22:50;;;;;;;9.93;4.50;;;;;;;;;;5291966;28;20066;-75
2023/05/03 05:25:22;;;;;;;9.57;4.63;;;;;;;;;;5292303;28;20051;-76
2023/05/03 05:27:53;;;;;;;11.50;4.93;;;;;;;;;;5292473;28;20054;-75
2023/05/03 05:30:24;;;;;;;7.27;4.50;;;;;;;;;;5273104;28;20023;-76
2023/05/03 05:32:56;;;;;;;7.93;4.93;;;;;;;;;;5292055;28;20420;-76
2023/05/03 05:35:28;;;;;;;8.10;4.37;;;;;;;;;;5291419;28;20024;-76
2023/05/03 05:37:59;;;;;;;11.80;5.40;;;;;;;;;;5292256;28;20020;-77
2023/05/03 05:40:30;;;;;;;9.83;4.23;;;;;;;;;;5291087;28;20104;-76
2023/05/03 05:43:02;;;;;;;9.17;4.17;;;;;;;;;;5298091;28;20016;-76
2023/05/03 05:45:33;;;;;;;7.57;5.03;;;;;;;;;;5260013;28;20514;-76
2023/05/03 05:48:04;;;;;;;8.17;4.57;;;;;;;;;;5251379;28;20039;-76
2023/05/03 05:50:36;;;;;;;9.67;4.70;;;;;;;;;;5252866;28;20069;-76
2023/05/03 05:53:08;;;;;;;7.17;4.20;;;;;;;;;;5267403;28;20094;-76
2023/05/03 05:55:39;;;;;;;7.37;4.60;;;;;;;;;;5265304;28;20039;-75
2023/05/03 05:58:11;;;;;;;10.10;4.23;;;;;;;;;;5269179;28;20021;-76
2023/05/03 06:00:42;;;;;;;11.03;5.17;;;;;;;;;;5256145;28;20055;-76
2023/05/03 06:03:14;;;;;;;11.77;5.33;;;;;;;;;;5267220;28;20024;-77
2023/05/03 06:05:45;;;;;;;14.40;4.33;;;;;;;;;;5274323;28;20027;-76
2023/05/03 06:08:17;;;;;;;5.83;4.67;;;;;;;;;;5271538;28;20017;-76
2023/05/03 06:10:48;;;;;;;8.93;4.73;;;;;;;;;;5268343;28;20024;-76
2023/05/03 06:13:20;;;;;;;6.00;4.00;;;;;;;;;;5262508;28;20387;-76
2023/05/03 06:16:02;;;;;;;10.37;4.13;;;;;;;;;;5248890;28;20514;-76
2023/05/03 06:18:33;;;;;;;10.17;4.70;;;;;;;;;;5245988;28;20036;-74
2023/05/03 06:21:04;;;;;;;8.93;4.23;;;;;;;;;;5268608;28;20474;-74
2023/05/03 06:23:39;;;;;;;10.07;4.13;;;;;;;;;;5271191;28;20116;-74
2023/05/03 06:26:10;;;;;;;6.13;4.05;;;;;;;;;;5250176;28;20016;-74
2023/05/03 06:28:42;;;;;;;8.87;4.07;;;;;;;;;;5266886;28;20031;-75
2023/05/03 06:31:13;;;;;;;8.53;4.73;;;;;;;;;;5246283;28;20024;-75
2023/05/03 06:33:46;;;;;;;8.60;3.90;;;;;;;;;;5264001;28;20657;-74
2023/05/03 06:36:17;;;;;;;7.40;4.60;;;;;;;;;;5266484;28;20913;-74
2023/05/03 06:38:48;;;;;;;9.60;4.17;;;;;;;;;;5247221;28;20324;-74
2023/05/03 06:41:19;;;;;;;7.50;4.40;;;;;;;;;;5243070;28;20254;-74
2023/05/03 06:43:51;;;;;;;12.60;4.33;;;;;;;;;;5250504;28;20043;-75
2023/05/03 06:46:22;;;;;;;10.70;5.00;;;;;;;;;;5269735;28;20515;-74
2023/05/03 06:48:56;;;;;;;5.83;3.73;;;;;;;;;;5243320;28;21140;-74
2023/05/03 06:51:29;;;;;;;13.07;4.10;;;;;;;;;;5264465;28;20031;-74
2023/05/03 06:54:05;;;;;;;5.27;3.47;;;;;;;;;;5262245;28;20459;-75
2023/05/03 06:56:36;;;;;;;16.90;4.70;;;;;;;;;;5272939;28;20024;-74
2023/05/03 06:59:07;;;;;;;8.20;4.27;;;;;;;;;;5277804;28;20024;-73
2023/05/03 07:01:38;;;;;;;7.27;3.73;;;;;;;;;;5277333;28;20443;-73
2023/05/03 07:04:10;;;;;;;11.07;3.83;;;;;;;;;;5279397;28;20028;-75
2023/05/03 07:06:41;;;;;;;9.67;4.40;;;;;;;;;;5260500;28;20435;-75
2023/05/03 07:09:12;;;;;;;7.87;4.37;;;;;;;;;;5265544;28;20112;-75
2023/05/03 07:11:49;;;;;;;8.83;4.87;;;;;;;;;;5267933;28;20578;-75
2023/05/03 07:14:20;;;;;;;17.47;5.53;;;;;;;;;;5266147;28;20210;-75
2023/05/03 07:16:51;;;;;;;8.00;4.17;;;;;;;;;;5271900;28;20036;-75
2023/05/03 07:19:22;;;;;;;7.60;4.17;;;;;;;;;;5273591;28;20103;-75
2023/05/03 07:21:53;;;;;;;9.67;4.87;;;;;;;;;;5275288;28;20028;-75
2023/05/03 07:24:25;;;;;;;9.30;4.23;;;;;;;;;;5277266;28;20355;-75
2023/05/03 07:26:57;;;;;;;8.70;4.70;;;;;;;;;;5265348;28;20479;-75
2023/05/03 07:29:28;;;;;;;10.33;4.23;;;;;;;;;;5278536;28;20020;-75
2023/05/03 07:31:59;;;;;;;10.30;4.27;;;;;;;;;;5272093;28;20093;-74
2023/05/03 07:34:31;;;;;;;8.80;4.30;;;;;;;;;;5275360;28;20103;-74
2023/05/03 07:37:02;;;;;;;6.57;3.80;;;;;;;;;;5279992;28;20375;-74
2023/05/03 07:39:33;;;;;;;6.23;4.07;;;;;;;;;;5272252;28;20020;-75
2023/05/03 07:42:05;;;;;;;12.50;3.97;;;;;;;;;;5264809;28;20017;-73
2023/05/03 07:44:36;;;;;;;9.77;3.90;;;;;;;;;;5275606;28;20023;-74
2023/05/03 07:47:07;;;;;;;6.03;3.30;;;;;;;;;;5276934;28;20119;-74
2023/05/03 07:49:38;;;;;;;6.83;3.40;;;;;;;;;;5271105;28;20371;-74
2023/05/03 07:52:10;;;;;;;8.23;3.87;;;;;;;;;;5275099;28;20024;-75
2023/05/03 07:54:42;;;;;;;4.47;2.73;;;;;;;;;;5268453;28;20595;-74
2023/05/03 07:57:13;;;;;;;6.33;2.97;;;;;;;;;;5275593;28;20028;-75
2023/05/03 07:59:45;;;;;;;7.97;2.97;;;;;;;;;;5262978;28;20024;-73
2023/05/03 08:02:16;;;;;;;9.07;3.07;;;;;;;;;;5277319;28;20107;-74
2023/05/03 08:04:47;;;;;;;5.87;3.07;;;;;;;;;;5278163;28;20105;-74
2023/05/03 08:07:19;;;;;;;5.47;3.13;;;;;;;;;;5261385;28;20020;-75
2023/05/03 08:09:52;;;;;;;8.17;2.87;;;;;;;;;;5252624;28;20017;-74
2023/05/03 08:12:27;;;;;;;5.72;2.88;;;;;;;;;;5272072;28;20100;-75
2023/05/03 08:14:58;;;;;;;7.47;3.37;;;;;;;;;;5248563;28;20068;-75
2023/05/03 08:17:29;;;;;;;6.13;3.10;;;;;;;;;;5241717;28;20581;-73
2023/05/03 08:20:05;;;;;;;6.53;2.78;;;;;;;;;;5250911;28;20021;-74
2023/05/03 08:22:39;;;;;;;7.33;3.23;;;;;;;;;;5256576;28;20024;-75
2023/05/03 08:25:11;;;;;;;8.60;3.53;;;;;;;;;;5244703;28;20044;-75
2023/05/03 08:27:42;;;;;;;6.20;3.20;;;;;;;;;;5249569;28;20044;-74
2023/05/03 08:30:13;;;;;;;6.70;3.23;;;;;;;;;;5253013;28;20025;-74
2023/05/03 08:32:45;;;;;;;8.00;2.80;;;;;;;;;;5240420;28;20157;-74
2023/05/03 08:35:16;;;;;;;5.07;2.33;;;;;;;;;;5240745;28;20117;-74
2023/05/03 08:37:47;;;;;;;5.70;2.20;;;;;;;;;;5239312;28;20029;-74
2023/05/03 08:40:22;;;;;;;7.90;3.60;;;;;;;;;;5246783;28;20048;-74
2023/05/03 08:42:55;;;;;;;7.30;2.80;;;;;;;;;;5249364;28;20060;-74
2023/05/03 08:45:26;;;;;;;4.90;2.58;;;;;;;;;;5244593;28;20484;-75
2023/05/03 08:47:59;;;;;;;6.20;2.63;;;;;;;;;;5247014;28;20112;-75
2023/05/03 08:50:31;;;;;;;10.20;3.15;;;;;;;;;;5239354;28;20477;-74
2023/05/03 08:53:03;;;;;;;9.32;3.13;;;;;;;;;;5250029;28;20082;-74
2023/05/03 08:55:34;;;;;;;6.78;2.92;;;;;;;;;;5251473;28;20078;-75
2023/05/03 08:58:09;;;;;;;7.15;3.25;;;;;;;;;;5254883;28;20070;-74
2023/05/03 09:00:43;;;;;;;5.82;2.88;;;;;;;;;;5242648;28;20629;-72
2023/05/03 09:03:15;;;;;;;5.93;2.45;;;;;;;;;;5254205;28;20078;-73
2023/05/03 09:05:46;;;;;;;5.53;2.72;;;;;;;;;;5241061;28;21160;-73
2023/05/03 09:08:21;;;;;;;5.50;2.60;;;;;;;;;;5245351;28;20494;-73
2023/05/03 09:10:52;;;;;;;5.38;2.92;;;;;;;;;;5244673;28;20029;-74
2023/05/03 09:13:33;;;;;;;6.90;2.72;;;;;;;;;;5252584;28;20547;-74
2023/05/03 09:16:04;;;;;;;5.40;2.67;;;;;;;;;;5249856;28;20032;-75
2023/05/03 09:18:36;;;;;;;4.95;2.60;;;;;;;;;;5248199;28;20428;-73
2023/05/03 09:21:17;;;;;;;5.32;2.55;;;;;;;;;;5249720;28;20108;-75
2023/05/03 09:23:48;;;;;;;7.00;3.00;;;;;;;;;;5251900;28;20127;-75
2023/05/03 09:26:46;;;;;;;6.53;2.33;;;;;;;;;;5248319;28;20021;-76
2023/05/03 09:29:31;;;;;;;5.50;2.40;;;;;;;;;;5241571;28;20040;-74
2023/05/03 09:32:07;;;;;;;5.72;2.20;;;;;;;;;;5249832;28;20056;-75
2023/05/03 09:34:38;;;;;;;6.05;2.92;;;;;;;;;;5245974;28;20025;-75
2023/05/03 09:37:09;;;;;;;4.90;2.42;;;;;;;;;;5239069;28;20165;-74
2023/05/03 09:39:43;;;;;;;7.40;2.50;;;;;;;;;;5257401;28;20143;-75
2023/05/03 09:42:15;;;;;;;4.20;2.50;;;;;;;;;;5245714;28;20017;-75
2023/05/03 09:44:47;;;;;;;5.32;2.42;;;;;;;;;;5239557;28;20274;-76
2023/05/03 09:47:20;;;;;;;4.03;2.70;;;;;;;;;;5252438;28;20028;-76
2023/05/03 09:49:51;;;;;;;7.88;2.88;;;;;;;;;;5250966;28;20763;-74
2023/05/03 09:52:22;;;;;;;7.13;2.70;;;;;;;;;;5244822;28;20016;-74
2023/05/03 09:54:54;;;;;;;5.25;2.53;;;;;;;;;;5249739;28;20080;-75
2023/05/03 09:57:25;;;;;;;6.72;2.90;;;;;;;;;;5249787;28;20027;-75
2023/05/03 09:59:56;;;;;;;5.35;3.00;;;;;;;;;;5251377;28;20021;-75
2023/05/03 10:02:30;;;;;;;4.28;2.63;;;;;;;;;;5245212;28;20036;-74
2023/05/03 10:05:01;;;;;;;6.00;2.88;;;;;;;;;;5239690;28;20025;-74
2023/05/03 10:07:33;;;;;;;10.38;3.72;;;;;;;;;;5253708;28;20027;-75
2023/05/03 10:10:06;;;;;;;7.85;2.55;;;;;;;;;;5248001;28;20512;-75
2023/05/03 10:12:37;;;;;;;7.83;2.80;;;;;;;;;;5239465;28;20116;-75
2023/05/03 10:15:09;;;;;;;5.82;3.33;;;;;;;;;;5252692;28;20804;-74
2023/05/03 10:17:41;;;;;;;5.80;2.30;;;;;;;;;;5241459;28;20033;-75
2023/05/03 10:20:19;;;;;;;6.72;2.80;;;;;;;;;;5253701;28;20033;-75
2023/05/03 10:23:09;;;;;;;7.10;3.00;;;;;;;;;;5236735;28;20103;-75
2023/05/03 10:26:12;;;;;;;6.55;3.25;;;;;;;;;;5246286;28;20388;-75
2023/05/03 10:28:43;;;;;;;5.57;2.92;;;;;;;;;;5245451;28;20053;-74
2023/05/03 10:31:33;;;;;;;7.70;2.97;;;;;;;;;;5238422;28;20123;-73
2023/05/03 10:34:18;;;;;;;10.15;3.20;;;;;;;;;;5255220;28;20431;-75
2023/05/03 10:36:51;;;;;;;6.15;2.92;;;;;;;;;;5249438;28;20540;-75
2023/05/03 10:39:23;;;;;;;7.53;3.15;;;;;;;;;;5252446;28;20128;-75
2023/05/03 10:41:58;;;;;;;5.25;2.38;;;;;;;;;;5256188;28;20361;-75
2023/05/03 10:44:40;;;;;;;5.63;2.60;;;;;;;;;;5237955;28;20111;-75
2023/05/03 10:47:18;;;;;;;5.20;2.88;;;;;;;;;;5251093;28;20051;-75
2023/05/03 10:50:08;;;;;;;6.68;2.70;;;;;;;;;;5252358;28;20035;-75
2023/05/03 10:52:39;;;;;;;5.57;2.63;;;;;;;;;;5238722;28;20025;-74
2023/05/03 10:55:12;;;;;;;5.75;2.42;;;;;;;;;;5239863;28;20036;-75
2023/05/03 10:57:46;;;;;;;8.10;2.90;;;;;;;;;;5248009;28;20275;-75
2023/05/03 11:00:23;;;;;;;5.97;2.83;;;;;;;;;;5244700;28;20029;-74
2023/05/03 11:02:57;;;;;;;7.60;3.15;;;;;;;;;;5245419;28;20021;-76
2023/05/03 11:05:29;;;;;;;6.05;2.80;;;;;;;;;;5240877;28;20116;-75
2023/05/03 11:08:17;;;;;;;6.88;2.92;;;;;;;;;;5242158;28;20021;-75
2023/05/03 11:10:49;;;;;;;6.53;3.20;;;;;;;;;;5240429;28;20386;-75
2023/05/03 11:13:21;;;;;;;8.70;3.08;;;;;;;;;;5236290;28;20159;-74
2023/05/03 11:15:53;;;;;;;7.97;3.03;;;;;;;;;;5253718;28;20531;-75
2023/05/03 11:18:27;;;;;;;5.03;2.97;;;;;;;;;;5242280;28;20036;-74
2023/05/03 11:20:58;;;;;;;6.93;3.22;;;;;;;;;;5247952;28;20171;-74
2023/05/03 11:23:29;;;;;;;7.10;3.25;;;;;;;;;;5243285;28;20262;-74
2023/05/03 11:26:04;;;;;;;7.63;3.25;;;;;;;;;;5236887;28;20436;-74
2023/05/03 11:28:39;;;;;;;7.05;3.42;;;;;;;;;;5236767;28;20025;-74
2023/05/03 11:31:11;;;;;;;8.18;3.55;;;;;;;;;;5252222;28;20473;-74
2023/05/03 11:33:43;;;;;;;6.25;3.58;;;;;;;;;;5241937;28;20017;-75
2023/05/03 11:36:15;;;;;;;7.28;3.35;;;;;;;;;;5244107;28;20028;-74
2023/05/03 11:38:46;;;;;;;9.25;3.28;;;;;;;;;;5256540;28;20090;-75
2023/05/03 11:41:17;;;;;;;7.38;3.45;;;;;;;;;;5253069;28;20832;-74
2023/05/03 11:43:48;;;;;;;4.93;2.88;;;;;;;;;;5252295;28;20222;-75
2023/05/03 11:46:21;;;;;;;10.27;3.80;;;;;;;;;;5250737;28;20028;-74
2023/05/03 11:48:53;;;;;;;10.47;3.67;;;;;;;;;;5244513;28;20666;-74
2023/05/03 11:51:27;;;;;;;7.30;3.60;;;;;;;;;;5252348;28;20271;-74
2023/05/03 11:53:59;;;;;;;8.20;3.60;;;;;;;;;;5248765;28;20588;-75
2023/05/03 11:56:31;;;;;;;8.75;3.83;;;;;;;;;;5258349;28;20063;-75
2023/05/03 11:59:02;;;;;;;7.78;3.33;;;;;;;;;;5242122;28;20108;-75
2023/05/03 12:01:33;;;;;;;5.20;3.20;;;;;;;;;;5251059;28;20035;-75
2023/05/03 12:04:05;;;;;;;9.65;3.72;;;;;;;;;;5247323;28;20017;-75
2023/05/03 12:06:36;;;;;;;5.80;3.42;;;;;;;;;;5253191;28;20400;-74
2023/05/03 12:09:12;;;;;;;7.65;4.30;;;;;;;;;;5248908;28;20028;-74
2023/05/03 12:11:44;;;;;;;6.63;3.17;;;;;;;;;;5250871;28;20119;-74
2023/05/03 12:14:15;;;;;;;8.38;3.25;;;;;;;;;;5249677;28;20091;-74
2023/05/03 12:16:51;;;;;;;7.13;3.63;;;;;;;;;;5243234;28;20025;-75
2023/05/03 12:19:23;;;;;;;6.53;3.35;;;;;;;;;;5239318;28;20075;-75
2023/05/03 12:21:54;;;;;;;6.78;3.83;;;;;;;;;;5254433;28;20028;-75
2023/05/03 12:24:26;;;;;;;7.80;3.50;;;;;;;;;;5242651;28;20151;-75
2023/05/03 12:26:57;;;;;;;6.28;3.35;;;;;;;;;;5243016;28;20028;-75
2023/05/03 12:29:30;;;;;;;9.80;3.42;;;;;;;;;;5251575;28;20062;-74
2023/05/03 12:32:01;;;;;;;9.27;3.10;;;;;;;;;;5239077;28;20029;-74
2023/05/03 12:34:33;;;;;;;6.40;3.33;;;;;;;;;;5251433;28;20035;-74
2023/05/03 12:37:04;;;;;;;6.97;3.33;;;;;;;;;;5251455;28;20507;-74
2023/05/03 12:39:36;;;;;;;9.93;3.70;;;;;;;;;;5250919;28;20115;-74
2023/05/03 12:42:08;;;;;;;10.20;3.50;;;;;;;;;;5238685;28;21426;-74
2023/05/03 12:44:40;;;;;;;6.18;3.08;;;;;;;;;;5240591;28;20684;-74
2023/05/03 12:47:12;;;;;;;6.75;3.25;;;;;;;;;;5250301;28;20024;-74
2023/05/03 12:49:43;;;;;;;6.68;2.83;;;;;;;;;;5259593;28;20141;-75
2023/05/03 12:52:15;;;;;;;8.30;3.30;;;;;;;;;;5239906;28;20582;-74
2023/05/03 12:54:47;;;;;;;9.07;3.60;;;;;;;;;;5256122;28;20043;-74
2023/05/03 12:57:18;;;;;;;9.13;3.70;;;;;;;;;;5258935;28;20012;-74
2023/05/03 12:59:52;;;;;;;7.13;3.37;;;;;;;;;;5255086;28;20020;-73
2023/05/03 13:02:23;;;;;;;9.23;3.45;;;;;;;;;;5250242;28;21019;-74
2023/05/03 13:04:54;;;;;;;5.03;3.43;;;;;;;;;;5246929;28;20403;-74
2023/05/03 13:07:26;;;;;;;6.20;3.40;;;;;;;;;;5252396;28;20401;-75
2023/05/03 13:09:58;;;;;;;7.97;3.40;;;;;;;;;;5250980;28;20368;-75
2023/05/03 13:12:29;;;;;;;8.07;3.40;;;;;;;;;;5238831;28;20830;-74
2023/05/03 13:15:01;;;;;;;10.17;3.80;;;;;;;;;;5251998;28;20013;-75
2023/05/03 13:17:33;;;;;;;6.53;3.40;;;;;;;;;;5244666;28;20174;-73
2023/05/03 13:20:05;;;;;;;7.53;4.30;;;;;;;;;;5254335;28;20538;-73
2023/05/03 13:22:37;;;;;;;8.93;3.67;;;;;;;;;;5240440;28;20454;-74
2023/05/03 13:25:08;;;;;;;5.87;3.00;;;;;;;;;;5244354;28;20009;-74
2023/05/03 13:27:40;;;;;;;9.23;4.03;;;;;;;;;;5237842;28;20024;-74
2023/05/03 13:30:13;;;;;;;7.67;3.67;;;;;;;;;;5238204;28;20685;-74
2023/05/03 13:32:44;;;;;;;5.67;3.20;;;;;;;;;;5255915;28;20028;-73
2023/05/03 13:35:16;;;;;;;7.00;3.63;;;;;;;;;;5244150;28;20083;-73
2023/05/03 13:37:47;;;;;;;8.53;3.77;;;;;;;;;;5247137;28;20033;-74
2023/05/03 13:40:18;;;;;;;8.23;3.97;;;;;;;;;;5252512;28;20063;-74
2023/05/03 13:42:49;;;;;;;6.73;3.17;;;;;;;;;;5240013;28;20017;-74
2023/05/03 13:45:21;;;;;;;10.00;3.73;;;;;;;;;;5243747;28;20028;-74
2023/05/03 13:47:52;;;;;;;8.40;3.97;;;;;;;;;;5250825;28;20020;-74
2023/05/03 13:50:23;;;;;;;6.73;3.83;;;;;;;;;;5257079;28;20016;-74
2023/05/03 13:52:55;;;;;;;8.33;3.70;;;;;;;;;;5242936;28;20354;-73
2023/05/03 13:55:26;;;;;;;6.60;4.23;;;;;;;;;;5247203;28;20178;-73
2023/05/03 13:57:57;;;;;;;6.37;3.40;;;;;;;;;;5248279;28;20025;-74
2023/05/03 14:00:28;;;;;;;5.60;3.23;;;;;;;;;;5243286;28;20021;-74
2023/05/03 14:03:00;;;;;;;8.93;3.60;;;;;;;;;;5239987;28;20028;-74
2023/05/03 14:05:31;;;;;;;8.53;3.60;;;;;;;;;;5254836;28;20094;-74
2023/05/03 14:08:02;;;;;;;9.00;2.87;;;;;;;;;;5254440;28;20032;-75
2023/05/03 14:10:34;;;;;;;10.17;3.53;;;;;;;;;;5254765;28;20625;-75
2023/05/03 14:13:06;;;;;;;9.33;3.80;;;;;;;;;;5250755;28;20063;-74
2023/05/03 14:15:38;;;;;;;6.93;3.70;;;;;;;;;;5246505;28;20225;-73
2023/05/03 14:18:09;;;;;;;7.97;3.77;;;;;;;;;;5248372;28;20009;-74
2023/05/03 14:20:41;;;;;;;7.93;3.60;;;;;;;;;;5238440;28;20031;-73
2023/05/03 14:23:12;;;;;;;7.97;3.67;;;;;;;;;;5256348;28;20081;-75
2023/05/03 14:25:43;;;;;;;9.00;3.07;;;;;;;;;;5244354;28;20013;-74
2023/05/03 14:28:14;;;;;;;5.70;3.10;;;;;;;;;;5246895;28;20022;-75
2023/05/03 14:30:45;;;;;;;6.27;3.77;;;;;;;;;;5245493;28;20484;-73
2023/05/03 14:33:17;;;;;;;7.83;3.87;;;;;;;;;;5253940;28;20025;-74
2023/05/03 14:35:48;;;;;;;9.63;3.77;;;;;;;;;;5249540;28;20052;-74
2023/05/03 14:38:21;;;;;;;9.03;4.23;;;;;;;;;;5241309;28;20017;-74
2023/05/03 14:40:52;;;;;;;6.87;3.40;;;;;;;;;;5249724;28;20112;-74
2023/05/03 14:43:23;;;;;;;8.73;4.70;;;;;;;;;;5253817;28;20369;-74
2023/05/03 14:45:54;;;;;;;5.17;3.10;;;;;;;;;;5245453;28;20035;-74
2023/05/03 14:48:25;;;;;;;7.50;3.40;;;;;;;;;;5245899;28;20024;-73
2023/05/03 14:50:57;;;;;;;8.43;3.37;;;;;;;;;;5255365;28;20098;-74
2023/05/03 14:53:28;;;;;;;6.27;3.27;;;;;;;;;;5240004;28;20029;-73
2023/05/03 14:55:59;;;;;;;5.83;3.20;;;;;;;;;;5241906;28;20029;-73
2023/05/03 14:58:31;;;;;;;6.60;3.33;;;;;;;;;;5240719;28;20725;-74
2023/05/03 15:01:05;;;;;;;9.27;3.20;;;;;;;;;;5239851;28;20063;-73
2023/05/03 15:03:36;;;;;;;6.97;3.15;;;;;;;;;;5249320;28;20031;-73
2023/05/03 15:06:08;;;;;;;4.97;2.60;;;;;;;;;;5250690;28;20028;-73
2023/05/03 15:08:40;;;;;;;7.97;3.27;;;;;;;;;;5238008;28;20221;-73
2023/05/03 15:11:11;;;;;;;7.30;3.00;;;;;;;;;;5256988;28;20009;-74